sensor_id;sensor_type;location;lat;lon;timestamp;temperature;humidity
11055;DHT22;5580;50.106;8.702;2023-05-20T00:01:36;15.90;99.90
11055;DHT22;5580;50.106;8.702;2023-05-20T00:04:02;15.90;99.90
11055;DHT22;5580;50.106;8.702;2023-05-20T00:06:27;15.90;99.90
11055;DHT22;5580;50.106;8.702;2023-05-20T00:08:53;15.90;99.90
11055;DHT22;5580;50.106;8.702;2023-05-20T00:11:20;15.90;99.90
11055;DHT22;5580;50.106;8.702;2023-05-20T00:13:46;15.90;99.90
11055;DHT22;5580;50.106;8.702;2023-05-20T00:16:11;15.80;99.90
11055;DHT22;5580;50.106;8.702;2023-05-20T00:18:37;15.80;99.90
11055;DHT22;5580;50.106;8.702;2023-05-20T00:21:02;15.80;99.90
11055;DHT22;5580;50.106;8.702;2023-05-20T00:23:28;15.80;99.90
11055;DHT22;5580;50.106;8.702;2023-05-20T00:25:54;15.90;99.90
11055;DHT22;5580;50.106;8.702;2023-05-20T00:28:19;15.80;99.90
11055;DHT22;5580;50.106;8.702;2023-05-20T00:30:47;15.80;99.90
11055;DHT22;5580;50.106;8.702;2023-05-20T00:33:12;15.80;99.90
11055;DHT22;5580;50.106;8.702;2023-05-20T00:35:38;15.80;99.90
11055;DHT22;5580;50.106;8.702;2023-05-20T00:38:03;15.80;99.90
11055;DHT22;5580;50.106;8.702;2023-05-20T00:40:30;15.80;99.90
11055;DHT22;5580;50.106;8.702;2023-05-20T00:42:55;15.70;99.90
11055;DHT22;5580;50.106;8.702;2023-05-20T00:45:21;15.70;99.90
11055;DHT22;5580;50.106;8.702;2023-05-20T00:47:47;15.70;99.90
11055;DHT22;5580;50.106;8.702;2023-05-20T00:50:13;15.60;99.90
11055;DHT22;5580;50.106;8.702;2023-05-20T00:52:38;15.50;99.90
11055;DHT22;5580;50.106;8.702;2023-05-20T00:55:06;15.50;99.90
11055;DHT22;5580;50.106;8.702;2023-05-20T00:57:33;15.50;99.90
11055;DHT22;5580;50.106;8.702;2023-05-20T01:00:02;15.50;99.90
11055;DHT22;5580;50.106;8.702;2023-05-20T01:02:28;15.50;99.90
11055;DHT22;5580;50.106;8.702;2023-05-20T01:04:54;15.50;99.90
11055;DHT22;5580;50.106;8.702;2023-05-20T01:07:21;15.50;99.90
11055;DHT22;5580;50.106;8.702;2023-05-20T01:09:46;15.60;99.90
11055;DHT22;5580;50.106;8.702;2023-05-20T01:12:16;15.50;99.90
11055;DHT22;5580;50.106;8.702;2023-05-20T01:15:11;15.50;99.90
11055;DHT22;5580;50.106;8.702;2023-05-20T01:17:39;15.50;99.90
11055;DHT22;5580;50.106;8.702;2023-05-20T01:20:07;15.50;99.90
11055;DHT22;5580;50.106;8.702;2023-05-20T01:22:57;15.50;99.90
11055;DHT22;5580;50.106;8.702;2023-05-20T01:25:23;15.50;99.90
11055;DHT22;5580;50.106;8.702;2023-05-20T01:27:50;15.50;99.90
11055;DHT22;5580;50.106;8.702;2023-05-20T01:30:17;15.50;99.90
11055;DHT22;5580;50.106;8.702;2023-05-20T01:32:47;15.40;99.90
11055;DHT22;5580;50.106;8.702;2023-05-20T01:35:15;15.40;99.90
11055;DHT22;5580;50.106;8.702;2023-05-20T01:37:42;15.50;99.90
11055;DHT22;5580;50.106;8.702;2023-05-20T01:40:09;15.50;99.90
11055;DHT22;5580;50.106;8.702;2023-05-20T01:42:35;15.40;99.90
11055;DHT22;5580;50.106;8.702;2023-05-20T01:45:01;15.40;99.90
11055;DHT22;5580;50.106;8.702;2023-05-20T01:47:27;15.40;99.90
11055;DHT22;5580;50.106;8.702;2023-05-20T01:49:53;15.40;99.90
11055;DHT22;5580;50.106;8.702;2023-05-20T01:52:20;15.40;99.90
11055;DHT22;5580;50.106;8.702;2023-05-20T01:54:45;15.40;99.90
11055;DHT22;5580;50.106;8.702;2023-05-20T01:57:17;15.40;99.90
11055;DHT22;5580;50.106;8.702;2023-05-20T01:59:42;15.40;99.90
11055;DHT22;5580;50.106;8.702;2023-05-20T02:02:08;15.40;99.90
11055;DHT22;5580;50.106;8.702;2023-05-20T02:04:34;15.50;99.90
11055;DHT22;5580;50.106;8.702;2023-05-20T02:07:00;15.50;99.90
11055;DHT22;5580;50.106;8.702;2023-05-20T02:09:26;15.50;99.90
11055;DHT22;5580;50.106;8.702;2023-05-20T02:11:51;15.50;99.90
11055;DHT22;5580;50.106;8.702;2023-05-20T02:14:20;15.40;99.90
11055;DHT22;5580;50.106;8.702;2023-05-20T02:16:46;15.40;99.90
11055;DHT22;5580;50.106;8.702;2023-05-20T02:19:12;15.40;99.90
11055;DHT22;5580;50.106;8.702;2023-05-20T02:21:41;15.30;99.90
11055;DHT22;5580;50.106;8.702;2023-05-20T02:24:10;15.40;99.90
11055;DHT22;5580;50.106;8.702;2023-05-20T02:26:35;15.30;99.90
11055;DHT22;5580;50.106;8.702;2023-05-20T02:29:01;15.40;99.90
11055;DHT22;5580;50.106;8.702;2023-05-20T02:31:27;15.40;99.90
11055;DHT22;5580;50.106;8.702;2023-05-20T02:33:52;15.30;99.90
11055;DHT22;5580;50.106;8.702;2023-05-20T02:36:18;15.20;99.90
11055;DHT22;5580;50.106;8.702;2023-05-20T02:38:46;15.30;99.90
11055;DHT22;5580;50.106;8.702;2023-05-20T02:41:11;15.20;99.90
11055;DHT22;5580;50.106;8.702;2023-05-20T02:43:37;15.20;99.90
11055;DHT22;5580;50.106;8.702;2023-05-20T02:46:03;15.20;99.90
11055;DHT22;5580;50.106;8.702;2023-05-20T02:48:29;15.20;99.90
11055;DHT22;5580;50.106;8.702;2023-05-20T02:50:54;15.10;99.90
11055;DHT22;5580;50.106;8.702;2023-05-20T02:53:20;15.10;99.90
11055;DHT22;5580;50.106;8.702;2023-05-20T02:55:46;15.00;99.90
11055;DHT22;5580;50.106;8.702;2023-05-20T02:58:12;15.00;99.90
11055;DHT22;5580;50.106;8.702;2023-05-20T03:00:38;15.00;99.90
11055;DHT22;5580;50.106;8.702;2023-05-20T03:03:05;14.90;99.90
11055;DHT22;5580;50.106;8.702;2023-05-20T03:05:32;14.90;99.90
11055;DHT22;5580;50.106;8.702;2023-05-20T03:07:58;14.90;99.90
11055;DHT22;5580;50.106;8.702;2023-05-20T03:10:23;14.90;99.90
11055;DHT22;5580;50.106;8.702;2023-05-20T03:12:49;14.90;99.90
11055;DHT22;5580;50.106;8.702;2023-05-20T03:15:14;14.90;99.90
11055;DHT22;5580;50.106;8.702;2023-05-20T03:17:40;14.90;99.90
11055;DHT22;5580;50.106;8.702;2023-05-20T03:20:06;14.90;99.90
11055;DHT22;5580;50.106;8.702;2023-05-20T03:22:32;14.90;99.90
11055;DHT22;5580;50.106;8.702;2023-05-20T03:24:57;14.90;99.90
11055;DHT22;5580;50.106;8.702;2023-05-20T03:27:25;14.90;99.90
11055;DHT22;5580;50.106;8.702;2023-05-20T03:29:53;14.90;99.90
11055;DHT22;5580;50.106;8.702;2023-05-20T03:32:19;15.00;99.90
11055;DHT22;5580;50.106;8.702;2023-05-20T03:34:45;15.00;99.90
11055;DHT22;5580;50.106;8.702;2023-05-20T03:37:11;15.00;99.90
11055;DHT22;5580;50.106;8.702;2023-05-20T03:39:36;14.90;99.90
11055;DHT22;5580;50.106;8.702;2023-05-20T03:42:02;14.90;99.90
11055;DHT22;5580;50.106;8.702;2023-05-20T03:44:27;14.90;99.90
11055;DHT22;5580;50.106;8.702;2023-05-20T03:46:53;14.90;99.90
11055;DHT22;5580;50.106;8.702;2023-05-20T03:49:18;14.90;99.90
11055;DHT22;5580;50.106;8.702;2023-05-20T03:51:44;14.90;99.90
11055;DHT22;5580;50.106;8.702;2023-05-20T03:54:09;14.90;99.90
11055;DHT22;5580;50.106;8.702;2023-05-20T03:56:35;14.80;99.90
11055;DHT22;5580;50.106;8.702;2023-05-20T03:59:01;14.70;99.90
11055;DHT22;5580;50.106;8.702;2023-05-20T04:01:28;14.70;99.90
11055;DHT22;5580;50.106;8.702;2023-05-20T04:03:54;14.80;99.90
11055;DHT22;5580;50.106;8.702;2023-05-20T04:06:19;14.60;99.90
11055;DHT22;5580;50.106;8.702;2023-05-20T04:08:46;14.60;99.90
11055;DHT22;5580;50.106;8.702;2023-05-20T04:11:12;14.60;99.90
11055;DHT22;5580;50.106;8.702;2023-05-20T04:13:38;14.60;99.90
11055;DHT22;5580;50.106;8.702;2023-05-20T04:16:03;14.60;99.90
11055;DHT22;5580;50.106;8.702;2023-05-20T04:18:29;14.60;99.90
11055;DHT22;5580;50.106;8.702;2023-05-20T04:20:56;14.60;99.90
11055;DHT22;5580;50.106;8.702;2023-05-20T04:23:21;14.60;99.90
11055;DHT22;5580;50.106;8.702;2023-05-20T04:25:48;14.60;99.90
11055;DHT22;5580;50.106;8.702;2023-05-20T04:28:14;14.60;99.90
11055;DHT22;5580;50.106;8.702;2023-05-20T04:30:40;14.60;99.90
11055;DHT22;5580;50.106;8.702;2023-05-20T04:33:07;14.60;99.90
11055;DHT22;5580;50.106;8.702;2023-05-20T04:35:32;14.60;99.90
11055;DHT22;5580;50.106;8.702;2023-05-20T04:38:02;14.60;99.90
11055;DHT22;5580;50.106;8.702;2023-05-20T04:40:27;14.60;99.90
11055;DHT22;5580;50.106;8.702;2023-05-20T04:42:53;14.60;99.90
11055;DHT22;5580;50.106;8.702;2023-05-20T04:45:18;14.60;99.90
11055;DHT22;5580;50.106;8.702;2023-05-20T04:47:45;14.60;99.90
11055;DHT22;5580;50.106;8.702;2023-05-20T04:50:10;14.60;99.90
11055;DHT22;5580;50.106;8.702;2023-05-20T04:52:40;14.60;99.90
11055;DHT22;5580;50.106;8.702;2023-05-20T04:55:10;14.60;99.90
11055;DHT22;5580;50.106;8.702;2023-05-20T04:57:37;14.60;99.90
11055;DHT22;5580;50.106;8.702;2023-05-20T05:00:07;14.70;99.90
11055;DHT22;5580;50.106;8.702;2023-05-20T05:02:36;14.80;99.90
11055;DHT22;5580;50.106;8.702;2023-05-20T05:05:01;14.80;99.90
11055;DHT22;5580;50.106;8.702;2023-05-20T05:07:27;14.80;99.90
11055;DHT22;5580;50.106;8.702;2023-05-20T05:09:53;14.80;99.90
11055;DHT22;5580;50.106;8.702;2023-05-20T05:12:18;14.80;99.90
11055;DHT22;5580;50.106;8.702;2023-05-20T05:14:44;14.80;99.90
11055;DHT22;5580;50.106;8.702;2023-05-20T05:17:09;14.80;99.90
11055;DHT22;5580;50.106;8.702;2023-05-20T05:19:35;15.00;99.90
11055;DHT22;5580;50.106;8.702;2023-05-20T05:22:00;15.00;99.90
11055;DHT22;5580;50.106;8.702;2023-05-20T05:24:26;15.10;99.90
11055;DHT22;5580;50.106;8.702;2023-05-20T05:26:55;15.20;99.90
11055;DHT22;5580;50.106;8.702;2023-05-20T05:29:21;15.20;99.90
11055;DHT22;5580;50.106;8.702;2023-05-20T05:31:46;15.20;99.90
11055;DHT22;5580;50.106;8.702;2023-05-20T05:34:13;15.20;99.90
11055;DHT22;5580;50.106;8.702;2023-05-20T05:36:39;15.20;99.90
11055;DHT22;5580;50.106;8.702;2023-05-20T05:39:05;15.20;99.90
11055;DHT22;5580;50.106;8.702;2023-05-20T05:41:31;15.20;99.90
11055;DHT22;5580;50.106;8.702;2023-05-20T05:43:57;15.20;99.90
11055;DHT22;5580;50.106;8.702;2023-05-20T05:46:23;15.30;99.90
11055;DHT22;5580;50.106;8.702;2023-05-20T05:48:49;15.30;99.90
11055;DHT22;5580;50.106;8.702;2023-05-20T05:51:15;15.30;99.90
11055;DHT22;5580;50.106;8.702;2023-05-20T05:53:41;15.30;99.90
11055;DHT22;5580;50.106;8.702;2023-05-20T05:56:06;15.30;99.90
11055;DHT22;5580;50.106;8.702;2023-05-20T05:58:33;15.30;99.90
11055;DHT22;5580;50.106;8.702;2023-05-20T06:00:58;15.40;99.90
11055;DHT22;5580;50.106;8.702;2023-05-20T06:03:24;15.30;99.90
11055;DHT22;5580;50.106;8.702;2023-05-20T06:05:50;15.30;99.90
11055;DHT22;5580;50.106;8.702;2023-05-20T06:08:15;15.30;99.90
11055;DHT22;5580;50.106;8.702;2023-05-20T06:10:41;15.40;99.90
11055;DHT22;5580;50.106;8.702;2023-05-20T06:13:11;15.40;99.90
11055;DHT22;5580;50.106;8.702;2023-05-20T06:15:36;15.50;99.90
11055;DHT22;5580;50.106;8.702;2023-05-20T06:18:03;15.50;99.90
11055;DHT22;5580;50.106;8.702;2023-05-20T06:20:29;15.50;99.90
11055;DHT22;5580;50.106;8.702;2023-05-20T06:22:54;15.60;99.90
11055;DHT22;5580;50.106;8.702;2023-05-20T06:25:20;15.50;99.90
11055;DHT22;5580;50.106;8.702;2023-05-20T06:27:47;15.60;99.90
11055;DHT22;5580;50.106;8.702;2023-05-20T06:30:13;15.50;99.90
11055;DHT22;5580;50.106;8.702;2023-05-20T06:32:38;15.40;99.90
11055;DHT22;5580;50.106;8.702;2023-05-20T06:35:04;15.40;99.90
11055;DHT22;5580;50.106;8.702;2023-05-20T06:37:33;15.30;99.90
11055;DHT22;5580;50.106;8.702;2023-05-20T06:39:58;15.30;99.90
11055;DHT22;5580;50.106;8.702;2023-05-20T06:42:24;15.30;99.90
11055;DHT22;5580;50.106;8.702;2023-05-20T06:44:49;15.30;99.90
11055;DHT22;5580;50.106;8.702;2023-05-20T06:47:15;15.30;99.90
11055;DHT22;5580;50.106;8.702;2023-05-20T06:49:44;15.30;99.90
11055;DHT22;5580;50.106;8.702;2023-05-20T06:52:10;15.30;99.90
11055;DHT22;5580;50.106;8.702;2023-05-20T06:54:39;15.30;99.90
11055;DHT22;5580;50.106;8.702;2023-05-20T06:57:09;15.30;99.90
11055;DHT22;5580;50.106;8.702;2023-05-20T06:59:35;15.30;99.90
11055;DHT22;5580;50.106;8.702;2023-05-20T07:02:02;15.40;99.90
11055;DHT22;5580;50.106;8.702;2023-05-20T07:04:27;15.40;99.90
11055;DHT22;5580;50.106;8.702;2023-05-20T07:06:53;15.40;99.90
11055;DHT22;5580;50.106;8.702;2023-05-20T07:09:19;15.40;99.90
11055;DHT22;5580;50.106;8.702;2023-05-20T07:11:44;15.40;99.90
11055;DHT22;5580;50.106;8.702;2023-05-20T07:14:10;15.30;99.90
11055;DHT22;5580;50.106;8.702;2023-05-20T07:16:36;15.30;99.90
11055;DHT22;5580;50.106;8.702;2023-05-20T07:19:02;15.30;99.90
11055;DHT22;5580;50.106;8.702;2023-05-20T07:21:28;15.40;99.90
11055;DHT22;5580;50.106;8.702;2023-05-20T07:23:53;15.40;99.90
11055;DHT22;5580;50.106;8.702;2023-05-20T07:26:19;15.40;99.90
11055;DHT22;5580;50.106;8.702;2023-05-20T07:28:45;15.50;99.90
11055;DHT22;5580;50.106;8.702;2023-05-20T07:31:12;15.50;99.90
11055;DHT22;5580;50.106;8.702;2023-05-20T07:33:38;15.50;99.90
11055;DHT22;5580;50.106;8.702;2023-05-20T07:36:03;15.50;99.90
11055;DHT22;5580;50.106;8.702;2023-05-20T07:38:29;15.50;99.90
11055;DHT22;5580;50.106;8.702;2023-05-20T07:40:55;15.60;99.90
11055;DHT22;5580;50.106;8.702;2023-05-20T07:43:21;15.70;99.90
11055;DHT22;5580;50.106;8.702;2023-05-20T07:45:46;15.80;99.90
11055;DHT22;5580;50.106;8.702;2023-05-20T07:48:12;15.70;99.90
11055;DHT22;5580;50.106;8.702;2023-05-20T07:50:38;15.80;99.90
11055;DHT22;5580;50.106;8.702;2023-05-20T07:53:04;15.80;99.90
11055;DHT22;5580;50.106;8.702;2023-05-20T07:55:33;15.90;99.90
11055;DHT22;5580;50.106;8.702;2023-05-20T07:57:59;16.00;99.90
11055;DHT22;5580;50.106;8.702;2023-05-20T08:00:25;16.00;99.90
11055;DHT22;5580;50.106;8.702;2023-05-20T08:02:50;16.10;99.90
11055;DHT22;5580;50.106;8.702;2023-05-20T08:05:16;16.00;99.90
11055;DHT22;5580;50.106;8.702;2023-05-20T08:07:42;16.10;99.90
11055;DHT22;5580;50.106;8.702;2023-05-20T08:10:08;16.10;99.90
11055;DHT22;5580;50.106;8.702;2023-05-20T08:12:33;16.20;99.90
11055;DHT22;5580;50.106;8.702;2023-05-20T08:14:59;16.30;99.90
11055;DHT22;5580;50.106;8.702;2023-05-20T08:17:24;16.40;99.90
11055;DHT22;5580;50.106;8.702;2023-05-20T08:19:50;16.40;99.90
11055;DHT22;5580;50.106;8.702;2023-05-20T08:22:16;16.50;99.90
11055;DHT22;5580;50.106;8.702;2023-05-20T08:24:41;16.60;99.90
11055;DHT22;5580;50.106;8.702;2023-05-20T08:27:07;16.60;99.90
11055;DHT22;5580;50.106;8.702;2023-05-20T08:29:33;16.60;99.90
11055;DHT22;5580;50.106;8.702;2023-05-20T08:31:58;16.70;99.90
11055;DHT22;5580;50.106;8.702;2023-05-20T08:34:24;16.70;99.90
11055;DHT22;5580;50.106;8.702;2023-05-20T08:36:50;16.90;99.90
11055;DHT22;5580;50.106;8.702;2023-05-20T08:39:16;16.90;99.90
11055;DHT22;5580;50.106;8.702;2023-05-20T08:41:41;17.00;99.90
11055;DHT22;5580;50.106;8.702;2023-05-20T08:44:08;17.10;99.90
11055;DHT22;5580;50.106;8.702;2023-05-20T08:46:36;17.30;99.90
11055;DHT22;5580;50.106;8.702;2023-05-20T08:49:02;17.40;99.90
11055;DHT22;5580;50.106;8.702;2023-05-20T08:51:28;17.50;99.90
11055;DHT22;5580;50.106;8.702;2023-05-20T08:53:58;17.40;99.90
11055;DHT22;5580;50.106;8.702;2023-05-20T08:56:25;17.30;99.90
11055;DHT22;5580;50.106;8.702;2023-05-20T08:58:51;17.30;99.90
11055;DHT22;5580;50.106;8.702;2023-05-20T09:01:18;17.20;99.90
11055;DHT22;5580;50.106;8.702;2023-05-20T09:03:43;17.20;99.90
11055;DHT22;5580;50.106;8.702;2023-05-20T09:06:09;17.20;99.90
11055;DHT22;5580;50.106;8.702;2023-05-20T09:08:35;17.20;99.90
11055;DHT22;5580;50.106;8.702;2023-05-20T09:11:01;17.30;99.90
11055;DHT22;5580;50.106;8.702;2023-05-20T09:13:29;17.30;99.90
11055;DHT22;5580;50.106;8.702;2023-05-20T09:15:58;17.20;99.90
11055;DHT22;5580;50.106;8.702;2023-05-20T09:18:25;17.30;99.90
11055;DHT22;5580;50.106;8.702;2023-05-20T09:20:51;17.30;99.90
11055;DHT22;5580;50.106;8.702;2023-05-20T09:23:19;17.40;99.90
11055;DHT22;5580;50.106;8.702;2023-05-20T09:25:49;17.40;99.90
11055;DHT22;5580;50.106;8.702;2023-05-20T09:28:17;17.50;99.90
11055;DHT22;5580;50.106;8.702;2023-05-20T09:30:43;17.50;99.90
11055;DHT22;5580;50.106;8.702;2023-05-20T09:33:10;17.50;99.90
11055;DHT22;5580;50.106;8.702;2023-05-20T09:35:36;17.50;99.90
11055;DHT22;5580;50.106;8.702;2023-05-20T09:38:04;17.60;99.90
11055;DHT22;5580;50.106;8.702;2023-05-20T09:40:30;17.70;99.90
11055;DHT22;5580;50.106;8.702;2023-05-20T09:43:01;17.80;99.90
11055;DHT22;5580;50.106;8.702;2023-05-20T09:45:27;17.90;99.90
11055;DHT22;5580;50.106;8.702;2023-05-20T09:47:54;17.90;99.90
11055;DHT22;5580;50.106;8.702;2023-05-20T09:50:21;18.00;99.90
11055;DHT22;5580;50.106;8.702;2023-05-20T09:52:49;18.00;99.90
11055;DHT22;5580;50.106;8.702;2023-05-20T09:55:19;18.00;99.90
11055;DHT22;5580;50.106;8.702;2023-05-20T09:57:46;18.00;99.90
11055;DHT22;5580;50.106;8.702;2023-05-20T10:00:13;17.90;99.90
11055;DHT22;5580;50.106;8.702;2023-05-20T10:02:49;17.90;99.90
11055;DHT22;5580;50.106;8.702;2023-05-20T10:05:20;17.90;99.90
11055;DHT22;5580;50.106;8.702;2023-05-20T10:08:07;17.90;99.90
11055;DHT22;5580;50.106;8.702;2023-05-20T10:10:54;18.00;99.90
11055;DHT22;5580;50.106;8.702;2023-05-20T10:19:17;18.10;99.90
11055;DHT22;5580;50.106;8.702;2023-05-20T10:24:34;18.30;99.90
11055;DHT22;5580;50.106;8.702;2023-05-20T10:27:01;18.30;99.90
11055;DHT22;5580;50.106;8.702;2023-05-20T10:29:27;18.30;99.90
11055;DHT22;5580;50.106;8.702;2023-05-20T10:31:53;18.20;99.90
11055;DHT22;5580;50.106;8.702;2023-05-20T10:34:21;18.30;99.90
11055;DHT22;5580;50.106;8.702;2023-05-20T10:39:18;18.40;99.90
11055;DHT22;5580;50.106;8.702;2023-05-20T10:41:44;18.40;99.90
11055;DHT22;5580;50.106;8.702;2023-05-20T10:44:10;18.40;99.90
11055;DHT22;5580;50.106;8.702;2023-05-20T10:46:35;18.30;99.90
11055;DHT22;5580;50.106;8.702;2023-05-20T10:49:02;18.30;99.90
11055;DHT22;5580;50.106;8.702;2023-05-20T10:51:28;18.30;99.90
11055;DHT22;5580;50.106;8.702;2023-05-20T10:53:56;18.30;99.90
11055;DHT22;5580;50.106;8.702;2023-05-20T10:56:25;18.30;99.90
11055;DHT22;5580;50.106;8.702;2023-05-20T10:58:52;18.40;99.90
11055;DHT22;5580;50.106;8.702;2023-05-20T11:01:24;18.40;99.90
11055;DHT22;5580;50.106;8.702;2023-05-20T11:03:50;18.40;99.90
11055;DHT22;5580;50.106;8.702;2023-05-20T11:06:17;18.40;99.90
11055;DHT22;5580;50.106;8.702;2023-05-20T11:08:44;18.40;99.90
11055;DHT22;5580;50.106;8.702;2023-05-20T11:11:10;18.50;99.90
11055;DHT22;5580;50.106;8.702;2023-05-20T11:13:37;18.60;99.90
11055;DHT22;5580;50.106;8.702;2023-05-20T11:16:03;18.50;99.90
11055;DHT22;5580;50.106;8.702;2023-05-20T11:18:29;18.50;99.90
11055;DHT22;5580;50.106;8.702;2023-05-20T11:20:59;18.50;99.90
11055;DHT22;5580;50.106;8.702;2023-05-20T11:23:26;18.70;99.90
11055;DHT22;5580;50.106;8.702;2023-05-20T11:25:52;18.70;99.90
11055;DHT22;5580;50.106;8.702;2023-05-20T11:28:19;18.70;99.90
11055;DHT22;5580;50.106;8.702;2023-05-20T11:30:48;18.70;99.90
11055;DHT22;5580;50.106;8.702;2023-05-20T11:33:15;18.70;99.90
11055;DHT22;5580;50.106;8.702;2023-05-20T11:35:49;18.70;99.90
11055;DHT22;5580;50.106;8.702;2023-05-20T11:38:15;18.70;99.90
11055;DHT22;5580;50.106;8.702;2023-05-20T11:40:52;18.60;99.90
11055;DHT22;5580;50.106;8.702;2023-05-20T11:43:18;18.60;99.90
11055;DHT22;5580;50.106;8.702;2023-05-20T11:45:55;18.60;99.90
11055;DHT22;5580;50.106;8.702;2023-05-20T11:48:22;18.70;99.90
11055;DHT22;5580;50.106;8.702;2023-05-20T11:50:48;18.70;99.90
11055;DHT22;5580;50.106;8.702;2023-05-20T11:53:16;18.60;99.90
11055;DHT22;5580;50.106;8.702;2023-05-20T11:56:00;18.70;99.90
11055;DHT22;5580;50.106;8.702;2023-05-20T11:58:30;18.70;99.90
11055;DHT22;5580;50.106;8.702;2023-05-20T12:00:56;18.70;99.90
11055;DHT22;5580;50.106;8.702;2023-05-20T12:03:22;18.70;99.90
11055;DHT22;5580;50.106;8.702;2023-05-20T12:05:48;18.70;99.90
11055;DHT22;5580;50.106;8.702;2023-05-20T12:08:15;18.70;99.90
11055;DHT22;5580;50.106;8.702;2023-05-20T12:10:41;18.70;99.90
11055;DHT22;5580;50.106;8.702;2023-05-20T12:13:06;18.70;99.90
11055;DHT22;5580;50.106;8.702;2023-05-20T12:15:36;18.80;99.90
11055;DHT22;5580;50.106;8.702;2023-05-20T12:18:01;18.80;99.90
11055;DHT22;5580;50.106;8.702;2023-05-20T12:20:28;18.70;99.90
11055;DHT22;5580;50.106;8.702;2023-05-20T12:22:54;18.70;99.90
11055;DHT22;5580;50.106;8.702;2023-05-20T12:25:20;18.70;99.90
11055;DHT22;5580;50.106;8.702;2023-05-20T12:27:47;18.70;99.90
11055;DHT22;5580;50.106;8.702;2023-05-20T12:30:17;18.70;99.90
11055;DHT22;5580;50.106;8.702;2023-05-20T12:32:44;18.70;99.90
11055;DHT22;5580;50.106;8.702;2023-05-20T12:35:10;18.70;99.90
11055;DHT22;5580;50.106;8.702;2023-05-20T12:37:37;18.70;99.90
11055;DHT22;5580;50.106;8.702;2023-05-20T12:40:03;18.80;99.90
11055;DHT22;5580;50.106;8.702;2023-05-20T12:42:36;18.70;99.90
11055;DHT22;5580;50.106;8.702;2023-05-20T12:45:02;18.70;99.90
11055;DHT22;5580;50.106;8.702;2023-05-20T12:47:29;18.80;99.90
11055;DHT22;5580;50.106;8.702;2023-05-20T12:49:55;18.90;99.90
11055;DHT22;5580;50.106;8.702;2023-05-20T12:52:20;18.90;99.90
11055;DHT22;5580;50.106;8.702;2023-05-20T12:54:46;19.00;99.90
11055;DHT22;5580;50.106;8.702;2023-05-20T12:57:11;19.00;99.90
11055;DHT22;5580;50.106;8.702;2023-05-20T12:59:37;18.90;99.90
11055;DHT22;5580;50.106;8.702;2023-05-20T13:02:02;18.90;99.90
11055;DHT22;5580;50.106;8.702;2023-05-20T13:04:28;19.00;99.90
11055;DHT22;5580;50.106;8.702;2023-05-20T13:06:54;19.00;99.90
11055;DHT22;5580;50.106;8.702;2023-05-20T13:09:19;19.00;99.90
11055;DHT22;5580;50.106;8.702;2023-05-20T13:11:45;19.00;99.90
11055;DHT22;5580;50.106;8.702;2023-05-20T13:14:10;19.00;99.90
11055;DHT22;5580;50.106;8.702;2023-05-20T13:16:37;18.90;99.90
11055;DHT22;5580;50.106;8.702;2023-05-20T13:19:02;18.90;99.90
11055;DHT22;5580;50.106;8.702;2023-05-20T13:21:28;18.90;99.90
11055;DHT22;5580;50.106;8.702;2023-05-20T13:23:54;19.00;99.90
11055;DHT22;5580;50.106;8.702;2023-05-20T13:26:19;19.00;99.90
11055;DHT22;5580;50.106;8.702;2023-05-20T13:28:46;19.00;99.90
11055;DHT22;5580;50.106;8.702;2023-05-20T13:31:11;19.00;99.90
11055;DHT22;5580;50.106;8.702;2023-05-20T13:33:37;19.10;99.90
11055;DHT22;5580;50.106;8.702;2023-05-20T13:36:03;19.10;99.90
11055;DHT22;5580;50.106;8.702;2023-05-20T13:38:28;19.10;99.90
11055;DHT22;5580;50.106;8.702;2023-05-20T13:40:54;19.10;99.90
11055;DHT22;5580;50.106;8.702;2023-05-20T13:43:24;19.10;99.90
11055;DHT22;5580;50.106;8.702;2023-05-20T13:45:50;19.10;99.90
11055;DHT22;5580;50.106;8.702;2023-05-20T13:48:16;19.00;99.90
11055;DHT22;5580;50.106;8.702;2023-05-20T13:50:41;19.00;99.90
11055;DHT22;5580;50.106;8.702;2023-05-20T13:53:07;19.10;99.90
11055;DHT22;5580;50.106;8.702;2023-05-20T13:55:37;19.10;99.90
11055;DHT22;5580;50.106;8.702;2023-05-20T13:58:02;19.20;99.90
11055;DHT22;5580;50.106;8.702;2023-05-20T14:00:30;19.20;99.90
11055;DHT22;5580;50.106;8.702;2023-05-20T14:02:56;19.30;99.90
11055;DHT22;5580;50.106;8.702;2023-05-20T14:05:22;19.30;99.90
11055;DHT22;5580;50.106;8.702;2023-05-20T14:07:47;19.30;99.90
11055;DHT22;5580;50.106;8.702;2023-05-20T14:10:13;19.30;99.90
11055;DHT22;5580;50.106;8.702;2023-05-20T14:12:39;19.30;99.90
11055;DHT22;5580;50.106;8.702;2023-05-20T14:15:05;19.30;99.90
11055;DHT22;5580;50.106;8.702;2023-05-20T14:17:31;19.40;99.90
11055;DHT22;5580;50.106;8.702;2023-05-20T14:19:56;19.40;99.90
11055;DHT22;5580;50.106;8.702;2023-05-20T14:22:22;19.40;99.90
11055;DHT22;5580;50.106;8.702;2023-05-20T14:24:48;19.40;99.90
11055;DHT22;5580;50.106;8.702;2023-05-20T14:27:13;19.40;99.90
11055;DHT22;5580;50.106;8.702;2023-05-20T14:29:39;19.40;99.90
11055;DHT22;5580;50.106;8.702;2023-05-20T14:32:05;19.40;99.90
11055;DHT22;5580;50.106;8.702;2023-05-20T14:34:31;19.40;99.90
11055;DHT22;5580;50.106;8.702;2023-05-20T14:36:56;19.50;99.90
11055;DHT22;5580;50.106;8.702;2023-05-20T14:39:22;19.50;99.90
11055;DHT22;5580;50.106;8.702;2023-05-20T14:41:47;19.50;99.90
11055;DHT22;5580;50.106;8.702;2023-05-20T14:44:13;19.40;99.90
11055;DHT22;5580;50.106;8.702;2023-05-20T14:46:38;19.40;99.90
11055;DHT22;5580;50.106;8.702;2023-05-20T14:49:04;19.40;99.90
11055;DHT22;5580;50.106;8.702;2023-05-20T14:51:30;19.50;99.90
11055;DHT22;5580;50.106;8.702;2023-05-20T14:53:55;19.50;99.90
11055;DHT22;5580;50.106;8.702;2023-05-20T14:56:21;19.60;99.90
11055;DHT22;5580;50.106;8.702;2023-05-20T14:58:47;19.70;99.90
11055;DHT22;5580;50.106;8.702;2023-05-20T15:01:12;19.70;99.90
11055;DHT22;5580;50.106;8.702;2023-05-20T15:03:38;19.80;99.90
11055;DHT22;5580;50.106;8.702;2023-05-20T15:06:03;19.70;99.90
11055;DHT22;5580;50.106;8.702;2023-05-20T15:08:29;19.80;99.90
11055;DHT22;5580;50.106;8.702;2023-05-20T15:10:55;19.70;99.90
11055;DHT22;5580;50.106;8.702;2023-05-20T15:13:21;19.80;99.90
11055;DHT22;5580;50.106;8.702;2023-05-20T15:15:46;19.80;99.90
11055;DHT22;5580;50.106;8.702;2023-05-20T15:18:12;19.90;99.90
11055;DHT22;5580;50.106;8.702;2023-05-20T15:20:37;19.90;99.90
11055;DHT22;5580;50.106;8.702;2023-05-20T15:23:03;19.90;99.90
11055;DHT22;5580;50.106;8.702;2023-05-20T15:25:29;19.90;99.90
11055;DHT22;5580;50.106;8.702;2023-05-20T15:27:54;20.00;99.90
11055;DHT22;5580;50.106;8.702;2023-05-20T15:30:20;20.00;99.90
11055;DHT22;5580;50.106;8.702;2023-05-20T15:32:47;20.00;99.90
11055;DHT22;5580;50.106;8.702;2023-05-20T15:35:12;20.00;99.90
11055;DHT22;5580;50.106;8.702;2023-05-20T15:37:38;20.00;99.90
11055;DHT22;5580;50.106;8.702;2023-05-20T15:40:04;20.00;99.90
11055;DHT22;5580;50.106;8.702;2023-05-20T15:42:29;20.10;99.90
11055;DHT22;5580;50.106;8.702;2023-05-20T15:44:56;20.10;99.90
11055;DHT22;5580;50.106;8.702;2023-05-20T15:47:21;20.00;99.90
11055;DHT22;5580;50.106;8.702;2023-05-20T15:49:47;20.10;99.90
11055;DHT22;5580;50.106;8.702;2023-05-20T15:52:12;20.10;99.90